Time;durP1;ratioP1;P1;durP2;ratioP2;P2;SDS_P1;SDS_P2;PMS_P1;PMS_P2;Temp;Humidity;BMP_temperature;BMP_pressure;BME280_temperature;BME280_humidity;BME280_pressure;Samples;Min_cycle;Max_cycle;Signal;HPM_P1;HPM_P2
2020/12/10 04:19:39;;;;;;;42.03;18.42;;;-4.50;90.10;;;;;;5034833;28;20368;-95
2020/12/10 16:49:20;;;;;;;78.47;31.77;;;-1.40;94.70;;;;;;5034230;28;20380;-95
2020/12/10 16:51:46;;;;;;;67.22;26.70;;;-1.30;95.10;;;;;;5032189;28;20033;-94
2020/12/10 16:54:12;;;;;;;61.40;25.88;;;-1.30;95.00;;;;;;5015472;28;20079;-95
2020/12/10 16:56:38;;;;;;;56.92;24.27;;;-1.10;94.80;;;;;;5033544;28;20543;-94
2020/12/10 16:59:04;;;;;;;57.50;23.33;;;-1.00;94.50;;;;;;5016801;28;20033;-96
2020/12/10 17:01:30;;;;;;;56.08;25.33;;;-0.90;94.30;;;;;;5013635;28;20022;-96
2020/12/10 17:03:56;;;;;;;47.47;21.25;;;-0.80;94.20;;;;;;5019271;28;20374;-95
2020/12/10 17:06:22;;;;;;;52.97;23.83;;;-0.70;93.80;;;;;;5033764;28;20432;-95
2020/12/10 17:08:48;;;;;;;46.25;20.90;;;-0.70;93.50;;;;;;5033036;28;20037;-96
2020/12/10 17:11:23;;;;;;;57.42;26.75;;;-0.50;93.40;;;;;;5033450;28;20026;-96
2020/12/10 17:13:49;;;;;;;48.10;21.80;;;-0.50;93.50;;;;;;4994501;28;20096;-96
2020/12/10 17:16:16;;;;;;;52.90;26.73;;;-0.40;93.10;;;;;;4994026;28;20471;-95
2020/12/10 17:18:42;;;;;;;49.25;22.15;;;-0.40;92.90;;;;;;5032776;28;20112;-93
2020/12/10 17:21:08;;;;;;;55.05;25.67;;;-0.30;92.80;;;;;;5027322;28;20110;-93
2020/12/10 17:23:33;;;;;;;61.58;27.60;;;-0.30;92.70;;;;;;5023866;28;20033;-93
2020/12/10 17:26:02;;;;;;;48.15;20.00;;;-0.20;92.60;;;;;;5019487;28;20482;-94
2020/12/10 17:28:28;;;;;;;58.22;23.25;;;-0.20;92.40;;;;;;5012883;28;20033;-93
2020/12/10 17:30:54;;;;;;;52.67;24.80;;;-0.20;92.40;;;;;;5013288;28;20022;-94
2020/12/10 17:33:19;;;;;;;129.10;73.47;;;-0.10;92.40;;;;;;5013306;28;20463;-93
2020/12/10 17:35:45;;;;;;;124.63;63.45;;;-0.10;92.50;;;;;;5023532;28;20014;-95
2020/12/10 17:38:11;;;;;;;79.15;36.50;;;-0.10;92.50;;;;;;5033936;28;20071;-93
2020/12/10 17:40:38;;;;;;;173.75;95.35;;;0.00;92.40;;;;;;5033123;28;20108;-95
2020/12/10 17:43:05;;;;;;;68.32;32.85;;;0.00;92.50;;;;;;5033001;28;20025;-94
2020/12/10 17:45:30;;;;;;;66.40;28.83;;;0.00;92.40;;;;;;5034118;28;20079;-94
2020/12/10 17:47:56;;;;;;;65.82;29.77;;;0.10;92.40;;;;;;5033390;28;20049;-95
2020/12/10 17:50:22;;;;;;;70.97;32.65;;;0.10;92.40;;;;;;5033543;28;20025;-94
2020/12/10 17:52:48;;;;;;;68.55;28.10;;;0.10;92.40;;;;;;5032762;28;20032;-94
2020/12/10 17:55:15;;;;;;;66.90;30.15;;;0.10;92.50;;;;;;5033514;28;20022;-95
2020/12/10 17:57:41;;;;;;;66.68;30.20;;;0.20;92.60;;;;;;5033396;28;20063;-95
2020/12/10 18:00:07;;;;;;;55.53;25.88;;;0.20;92.40;;;;;;5015492;28;20534;-95
2020/12/10 18:02:33;;;;;;;54.67;26.52;;;0.20;92.30;;;;;;4999600;28;20489;-93
2020/12/10 18:04:59;;;;;;;74.13;31.75;;;0.30;92.40;;;;;;4999738;28;20059;-95
2020/12/10 18:07:25;;;;;;;80.28;34.88;;;0.30;92.40;;;;;;4999523;28;20093;-93
2020/12/10 18:09:53;;;;;;;57.90;25.05;;;0.30;92.40;;;;;;4999925;28;20121;-94
2020/12/10 18:12:19;;;;;;;69.25;28.42;;;0.40;92.50;;;;;;4999581;28;20065;-95
2020/12/10 18:14:49;;;;;;;66.40;27.95;;;0.40;92.40;;;;;;5002077;28;20459;-96
2020/12/10 18:17:17;;;;;;;51.83;20.83;;;0.40;92.60;;;;;;5023222;28;20037;-94
2020/12/10 18:19:44;;;;;;;84.45;33.60;;;0.50;92.60;;;;;;5016675;28;20030;-94
2020/12/10 18:22:10;;;;;;;72.22;31.60;;;0.50;92.60;;;;;;5006136;28;20030;-94
2020/12/10 18:24:35;;;;;;;77.15;33.75;;;0.50;92.70;;;;;;5018979;28;20021;-93
2020/12/10 18:27:01;;;;;;;95.68;47.92;;;0.60;92.70;;;;;;4999604;28;20375;-94
2020/12/10 18:29:27;;;;;;;72.68;32.58;;;0.60;92.70;;;;;;5000551;28;20030;-94
2020/12/10 18:31:57;;;;;;;73.25;28.52;;;0.60;92.70;;;;;;4999191;28;20023;-96
2020/12/10 18:34:23;;;;;;;87.45;36.67;;;0.70;92.70;;;;;;5012506;28;20029;-95
2020/12/10 18:36:50;;;;;;;81.30;30.90;;;0.70;92.70;;;;;;5018697;28;20429;-95
2020/12/10 18:39:16;;;;;;;68.88;27.70;;;0.80;92.70;;;;;;5018656;28;20112;-95
2020/12/10 18:41:42;;;;;;;87.80;33.60;;;0.80;92.60;;;;;;5018570;28;20021;-93
2020/12/10 18:44:09;;;;;;;86.68;29.23;;;0.80;92.50;;;;;;5018565;28;20021;-93
2020/12/10 18:46:34;;;;;;;74.47;31.63;;;0.80;92.50;;;;;;5018291;28;20022;-93
2020/12/10 18:49:00;;;;;;;70.28;28.13;;;0.90;92.50;;;;;;5002909;28;20053;-92
2020/12/10 18:51:26;;;;;;;89.75;34.55;;;0.90;92.40;;;;;;4998827;28;20051;-93
2020/12/10 18:53:52;;;;;;;78.00;32.35;;;0.90;92.40;;;;;;4998679;28;20022;-95
2020/12/10 18:56:18;;;;;;;88.57;32.03;;;0.90;92.40;;;;;;4998417;28;20026;-95
2020/12/10 18:58:46;;;;;;;77.22;34.40;;;0.90;92.40;;;;;;4999343;28;20076;-94
2020/12/10 19:01:11;;;;;;;74.20;30.88;;;1.00;92.40;;;;;;4999492;28;20044;-93
2020/12/10 19:03:37;;;;;;;73.30;27.63;;;1.00;92.30;;;;;;4998478;28;20498;-94
2020/12/10 19:06:05;;;;;;;86.25;35.70;;;1.00;92.20;;;;;;4998463;28;20022;-96
2020/12/10 19:08:34;;;;;;;79.53;33.15;;;1.00;92.30;;;;;;5255270;23;20054;-96
